Cason, Texas
Current Conditions -  °F | °C
As of 10:35 PM on Thursday 18 Dec 2014 (Local Time) from KOSA Reporting Station
Overcast Overcast  
Wind Chill: 44°   Ceiling: 1400
Heat Index: 47°   Visibility: 5mi
Dew Point: 45°   Wind: 5mph
Humidity: 95%   Direction: 30°NNE
Pressure: 30.2"   Gusts: NA
Location:  33.04°N, 94.82°W
Report Text: KOSA 190435Z AUTO 03004KT 5SM SCT007 BKN014 OVC029 08/07 A3020 RMK AO1 T00810074
Loading
Personal Weather Stations






























Interactive Weather Map New forecast layout! Learn more

10-Day Weather Forecast

Advertisements
Track Severe Weather on mobile